Time;durP1;ratioP1;P1;durP2;ratioP2;P2;SDS_P1;SDS_P2;PMS_P1;PMS_P2;Temp;Humidity;BMP_temperature;BMP_pressure;BME280_temperature;BME280_humidity;BME280_pressure;Samples;Min_cycle;Max_cycle;Signal;HPM_P1;HPM_P2
2022/08/15 00:02:58;;;;;;;;;21.00;19.25;;;;;26.41;53.54;98002.84;6238058;27;97497;-57
2022/08/15 00:06:06;;;;;;;;;19.00;18.00;;;;;26.39;53.48;98010.66;6236103;28;96851;-56
2022/08/15 00:09:30;;;;;;;;;23.50;21.50;;;;;26.38;53.57;98019.31;6215450;27;96909;-55
2022/08/15 00:13:00;;;;;;;;;30.00;30.00;;;;;26.35;53.59;98029.09;6237592;27;96783;-59
2022/08/15 00:16:19;;;;;;;;;27.00;25.00;;;;;26.31;53.75;98008.84;6251533;27;97527;-57
2022/08/15 00:19:25;;;;;;;;;20.00;18.40;;;;;26.28;53.87;98009.53;6237706;28;96818;-56
2022/08/15 00:22:28;;;;;;;;;23.40;22.00;;;;;26.25;53.89;98005.50;6237458;27;97543;-52
2022/08/15 00:25:39;;;;;;;;;23.60;21.60;;;;;26.11;53.71;97976.56;6237412;27;97479;-56
2022/08/15 00:28:46;;;;;;;;;21.00;20.00;;;;;26.19;53.83;97993.03;6238160;28;97569;-58
2022/08/15 00:32:00;;;;;;;;;22.00;21.40;;;;;26.18;53.89;97988.69;6236951;28;96974;-56
2022/08/15 00:35:39;;;;;;;;;23.20;23.00;;;;;26.18;54.32;97987.88;6229144;28;97455;-56
2022/08/15 00:38:58;;;;;;;;;20.00;20.00;;;;;26.17;54.13;98005.59;6245491;27;97422;-55
2022/08/15 00:42:06;;;;;;;;;26.00;25.60;;;;;26.17;54.55;97998.09;6252969;27;96872;-56
2022/08/15 00:45:20;;;;;;;;;17.00;15.20;;;;;26.20;54.27;98002.94;6256373;27;97260;-58
2022/08/15 00:48:42;;;;;;;;;31.25;29.50;;;;;26.17;54.69;98003.63;6237036;28;97004;-60
2022/08/15 00:51:51;;;;;;;;;26.25;25.00;;;;;26.17;54.35;98000.88;6227342;28;97079;-53
2022/08/15 00:55:00;;;;;;;;;20.25;19.50;;;;;26.18;54.79;97999.72;6235539;27;96659;-56
2022/08/15 00:58:05;;;;;;;;;19.00;18.80;;;;;26.19;54.79;98006.06;6238522;27;97504;-54
2022/08/15 01:01:12;;;;;;;;;26.40;26.00;;;;;26.18;54.51;98004.44;6232101;27;97116;-54
2022/08/15 01:04:18;;;;;;;;;19.50;18.00;;;;;26.05;54.72;97983.47;6244015;27;96775;-54
2022/08/15 01:07:23;;;;;;;;;22.60;20.80;;;;;25.99;54.53;97977.38;6232309;28;97505;-57
2022/08/15 01:10:28;;;;;;;;;24.00;23.00;;;;;26.14;54.63;98007.09;6235521;28;97050;-57
2022/08/15 01:13:39;;;;;;;;;20.50;18.50;;;;;25.95;54.69;97970.13;6245359;27;97431;-55
2022/08/15 01:17:07;;;;;;;;;23.00;20.00;;;;;26.14;55.06;97986.94;6218994;28;96878;-59
2022/08/15 01:20:19;;;;;;;;;22.75;22.00;;;;;26.13;55.15;97988.91;6237594;28;96782;-55
2022/08/15 01:23:37;;;;;;;;;21.50;18.75;;;;;26.15;55.08;97983.81;6240250;28;97471;-56
2022/08/15 01:26:44;;;;;;;;;23.00;22.60;;;;;26.12;54.88;97975.44;6238536;27;97930;-55
2022/08/15 01:29:50;;;;;;;;;22.25;21.25;;;;;26.06;55.11;97969.31;6244068;27;97241;-57
2022/08/15 01:32:56;;;;;;;;;19.80;18.80;;;;;26.09;54.78;97967.84;6250351;27;96872;-55
2022/08/15 01:36:00;;;;;;;;;21.00;20.00;;;;;26.09;55.16;97971.41;6238122;28;97625;-55
2022/08/15 01:39:13;;;;;;;;;20.80;19.20;;;;;26.08;54.84;97966.22;6239833;28;97472;-55
2022/08/15 01:42:28;;;;;;;;;20.00;16.80;;;;;26.06;54.77;97969.31;6272447;27;98127;-55
2022/08/15 01:45:44;;;;;;;;;25.00;23.40;;;;;26.07;54.95;97962.66;6249345;27;97471;-55
2022/08/15 01:48:54;;;;;;;;;17.80;17.80;;;;;26.07;54.73;97964.59;6239476;28;97403;-56
2022/08/15 01:52:01;;;;;;;;;23.40;21.40;;;;;26.06;54.79;97966.56;6237860;28;98278;-56
2022/08/15 01:55:29;;;;;;;;;26.00;23.50;;;;;26.06;55.07;97968.50;6239458;28;97382;-56
2022/08/15 01:58:40;;;;;;;;;20.20;18.60;;;;;26.05;54.99;97953.09;6239023;28;97409;-53
2022/08/15 02:01:50;;;;;;;;;14.00;14.00;;;;;26.03;55.23;97958.16;6238698;27;97422;-53
2022/08/15 02:04:59;;;;;;;;;25.00;22.25;;;;;26.00;55.06;97956.09;6260113;27;98677;-58
2022/08/15 02:08:05;;;;;;;;;22.00;20.25;;;;;26.00;55.23;97948.59;6260618;27;97378;-60
2022/08/15 02:11:30;;;;;;;;;22.00;19.40;;;;;25.97;55.25;97949.31;6238699;28;97093;-57
2022/08/15 02:14:55;;;;;;;;;22.00;21.00;;;;;25.97;54.99;97948.50;6264889;27;96906;-59
2022/08/15 02:17:59;;;;;;;;;15.80;15.20;;;;;25.95;55.25;97937.00;6259401;27;98453;-59
2022/08/15 02:21:07;;;;;;;;;19.80;18.80;;;;;25.92;55.37;97941.25;6235900;27;97217;-57
2022/08/15 02:24:18;;;;;;;;;26.60;25.00;;;;;25.91;55.26;97939.63;6239012;28;97426;-57
2022/08/15 02:27:27;;;;;;;;;22.20;20.40;;;;;25.90;55.16;97934.47;6230391;28;96680;-58
2022/08/15 02:30:34;;;;;;;;;23.40;21.00;;;;;25.85;54.93;97925.25;6223751;27;97258;-57
2022/08/15 02:33:38;;;;;;;;;24.00;22.60;;;;;25.82;54.74;97920.41;6250700;27;96871;-58
2022/08/15 02:36:49;;;;;;;;;27.00;25.50;;;;;25.78;54.50;97918.69;6250002;27;96877;-59
2022/08/15 02:39:57;;;;;;;;;25.50;22.50;;;;;25.74;54.66;97923.28;6227433;28;96939;-60
2022/08/15 02:43:22;;;;;;;;;22.75;21.00;;;;;25.70;54.63;97914.91;6224073;28;97476;-57
2022/08/15 02:46:29;;;;;;;;;21.50;20.00;;;;;25.68;54.73;97914.44;6230975;28;96730;-57
2022/08/15 02:49:36;;;;;;;;;23.00;22.00;;;;;25.66;54.44;97913.94;6238233;27;97048;-56
2022/08/15 02:52:54;;;;;;;;;23.00;20.00;;;;;25.60;54.69;97907.06;6238400;28;96645;-57
2022/08/15 02:55:59;;;;;;;;;18.50;17.50;;;;;25.63;54.67;97911.09;6239854;27;96400;-56
2022/08/15 02:59:04;;;;;;;;;23.00;22.00;;;;;25.62;54.63;97915.78;6235594;28;97462;-57
2022/08/15 03:02:16;;;;;;;;;25.00;23.80;;;;;25.60;54.84;97918.13;6233999;27;96870;-58
2022/08/15 03:05:39;;;;;;;;;26.00;23.00;;;;;25.56;54.64;97911.63;6234845;28;96934;-57
2022/08/15 03:08:46;;;;;;;;;24.60;23.60;;;;;25.55;54.51;97917.53;6242903;27;97801;-57
2022/08/15 03:11:50;;;;;;;;;21.40;19.60;;;;;25.53;54.71;97915.06;6257532;27;96977;-59
2022/08/15 03:15:02;;;;;;;;;21.40;21.00;;;;;25.52;54.64;97921.72;6248779;27;96950;-59
2022/08/15 03:18:10;;;;;;;;;25.20;22.00;;;;;25.52;54.85;97912.63;6216664;28;97364;-58
2022/08/15 03:21:19;;;;;;;;;19.60;19.00;;;;;25.51;54.82;97924.84;6242362;27;96633;-57
2022/08/15 03:24:26;;;;;;;;;20.00;19.00;;;;;25.53;55.05;97922.53;6238035;27;96604;-57
2022/08/15 03:27:30;;;;;;;;;24.20;21.00;;;;;25.51;55.43;97925.63;6236695;28;97431;-58
2022/08/15 03:30:38;;;;;;;;;24.40;23.00;;;;;25.54;55.55;97922.22;6234753;28;97474;-58
2022/08/15 03:33:46;;;;;;;;;20.00;18.67;;;;;25.53;55.78;97931.63;6237224;27;99161;-55
2022/08/15 03:37:01;;;;;;;;;22.00;21.00;;;;;25.52;56.11;97927.25;6237390;28;96458;-59
2022/08/15 03:40:08;;;;;;;;;23.40;20.40;;;;;25.54;56.09;97935.19;6232133;28;97026;-57
2022/08/15 03:43:18;;;;;;;;;17.50;16.50;;;;;25.57;56.33;97946.38;6236192;27;97494;-57
2022/08/15 03:46:23;;;;;;;;;23.25;23.00;;;;;25.58;56.32;97948.00;6236566;28;96957;-55
2022/08/15 03:49:29;;;;;;;;;24.75;23.00;;;;;25.58;56.10;97950.75;6238256;27;97447;-56
2022/08/15 03:52:56;;;;;;;;;20.60;18.00;;;;;25.57;56.60;97953.84;6266765;27;96865;-56
2022/08/15 03:56:02;;;;;;;;;22.60;21.60;;;;;25.56;56.75;97949.50;6236813;27;97418;-56
2022/08/15 03:59:11;;;;;;;;;25.60;23.60;;;;;25.56;56.96;97955.81;6235663;28;97454;-56
2022/08/15 04:02:27;;;;;;;;;23.20;22.80;;;;;25.57;56.89;97962.13;6234955;27;97619;-58
2022/08/15 04:05:36;;;;;;;;;21.40;19.40;;;;;25.57;56.97;97951.91;6238893;28;97497;-59
2022/08/15 04:08:42;;;;;;;;;26.00;24.25;;;;;25.50;57.10;97948.06;6212324;28;97123;-58
2022/08/15 04:12:08;;;;;;;;;25.40;24.40;;;;;25.60;57.27;97961.47;6218744;28;98525;-54
2022/08/15 04:15:30;;;;;;;;;23.80;22.20;;;;;25.61;57.34;97966.63;6253984;27;97338;-59
2022/08/15 04:18:35;;;;;;;;;32.80;30.20;;;;;25.64;57.21;97963.19;6235075;28;97488;-57
2022/08/15 04:21:49;;;;;;;;;32.80;29.80;;;;;25.67;57.52;97956.16;6235926;27;96671;-60
2022/08/15 04:25:00;;;;;;;;;27.00;26.00;;;;;25.67;57.42;97961.69;6235305;28;98109;-58
2022/08/15 04:28:14;;;;;;;;;29.80;28.00;;;;;25.67;57.36;97954.22;6259883;27;97489;-58
2022/08/15 04:31:38;;;;;;;;;34.80;31.80;;;;;25.69;57.44;97945.59;6263310;27;96812;-60
2022/08/15 04:34:42;;;;;;;;;30.00;28.60;;;;;25.69;57.65;97942.84;6235976;28;97569;-55
2022/08/15 04:37:56;;;;;;;;;27.25;25.50;;;;;25.71;57.61;97937.75;6212073;28;96451;-53
2022/08/15 04:41:01;;;;;;;;;39.00;33.00;;;;;25.70;57.56;97937.00;6217466;28;97828;-56
2022/08/15 04:44:24;;;;;;;;;22.20;16.00;;;;;25.71;57.76;97938.56;6261925;27;97142;-54
2022/08/15 04:47:31;;;;;;;;;40.00;35.00;;;;;25.74;57.84;97946.19;6249982;27;97666;-57
2022/08/15 04:50:44;;;;;;;;;28.00;24.00;;;;;25.74;58.01;97935.16;6229981;27;97178;-59
2022/08/15 04:53:51;;;;;;;;;36.80;32.80;;;;;25.76;58.08;97935.59;6235829;28;97587;-58
2022/08/15 04:56:57;;;;;;;;;40.80;35.00;;;;;25.79;57.86;97936.88;6237083;27;97206;-56
2022/08/15 05:00:05;;;;;;;;;33.00;30.00;;;;;25.84;58.45;97942.97;6249593;27;96697;-60
2022/08/15 05:03:27;;;;;;;;;34.00;29.00;;;;;25.88;58.21;97937.56;6239098;27;96728;-57
2022/08/15 05:06:34;;;;;;;;;30.25;28.00;;;;;25.93;58.25;97933.78;6238786;28;97530;-57
2022/08/15 05:09:43;;;;;;;;;28.40;26.00;;;;;26.00;58.08;97942.28;6237902;28;96795;-57
2022/08/15 05:13:15;;;;;;;;;33.00;30.00;;;;;26.10;58.06;97942.63;6272941;27;97261;-59
2022/08/15 05:16:20;;;;;;;;;33.00;29.00;;;;;26.18;57.77;97946.44;6238134;27;97416;-55
2022/08/15 05:19:38;;;;;;;;;39.80;33.80;;;;;26.27;58.11;97944.38;6236604;27;97424;-61
2022/08/15 05:22:53;;;;;;;;;31.60;26.00;;;;;26.36;57.71;97933.19;6256712;27;96882;-54
2022/08/15 05:26:00;;;;;;;;;31.40;28.20;;;;;26.39;57.35;97944.34;6254557;27;96889;-55
2022/08/15 05:29:06;;;;;;;;;32.40;28.00;;;;;26.42;57.58;97948.38;6239142;28;97403;-56
2022/08/15 05:32:09;;;;;;;;;33.00;30.00;;;;;26.44;57.64;97957.16;6234985;27;96822;-57
2022/08/15 05:35:21;;;;;;;;;33.00;30.00;;;;;26.45;57.22;97945.72;6239570;28;97415;-59
2022/08/15 05:38:28;;;;;;;;;37.40;33.00;;;;;26.51;57.37;97951.81;6234305;28;96959;-54
2022/08/15 05:41:51;;;;;;;;;36.80;30.20;;;;;26.56;57.35;97941.31;6257311;27;96866;-58
2022/08/15 05:45:08;;;;;;;;;33.00;29.00;;;;;26.65;57.20;97943.94;6237326;27;97095;-54
2022/08/15 05:48:18;;;;;;;;;34.60;29.80;;;;;26.71;57.03;97946.13;6238869;27;97495;-60
2022/08/15 05:51:35;;;;;;;;;30.00;28.00;;;;;26.64;56.80;97923.78;6238884;28;96989;-57
2022/08/15 05:55:19;;;;;;;;;34.00;29.80;;;;;26.83;56.61;97944.50;6223872;28;97441;-57
2022/08/15 05:58:37;;;;;;;;;34.80;29.80;;;;;27.04;56.20;97961.72;6238382;27;97478;-56
2022/08/15 06:01:55;;;;;;;;;30.40;28.40;;;;;27.10;55.74;97955.59;6243913;27;97851;-57
2022/08/15 06:05:27;;;;;;;;;41.80;32.60;;;;;27.25;54.95;97956.78;6264776;27;96605;-58
2022/08/15 06:08:46;;;;;;;;;29.00;25.60;;;;;27.31;54.83;97958.16;6262708;27;96635;-58
2022/08/15 06:11:55;;;;;;;;;30.00;25.40;;;;;27.38;55.14;97947.25;6238761;28;97104;-58
2022/08/15 06:15:13;;;;;;;;;33.00;28.00;;;;;27.45;54.41;97949.41;6229746;27;97482;-57
2022/08/15 06:18:24;;;;;;;;;38.00;32.00;;;;;27.50;54.55;97958.31;6240401;27;96829;-60
2022/08/15 06:21:42;;;;;;;;;41.60;35.20;;;;;27.46;53.86;97962.91;6239263;27;97417;-59
2022/08/15 06:25:01;;;;;;;;;36.50;30.75;;;;;27.38;54.20;97963.88;6223706;27;96667;-58
2022/08/15 06:28:27;;;;;;;;;35.75;30.75;;;;;27.35;54.27;97958.25;6238575;28;97508;-55
2022/08/15 06:31:58;;;;;;;;;48.50;38.00;;;;;27.42;53.98;97967.53;6216385;28;96793;-54
2022/08/15 06:35:13;;;;;;;;;36.25;32.00;;;;;27.47;54.21;97972.00;6216703;28;97572;-54
2022/08/15 06:38:24;;;;;;;;;33.00;29.60;;;;;27.52;53.85;97966.22;6258526;27;98260;-57
2022/08/15 06:41:54;;;;;;;;;36.20;31.40;;;;;27.58;54.21;97973.94;6238697;27;97232;-57
2022/08/15 06:45:29;;;;;;;;;30.75;27.75;;;;;27.65;53.47;97967.78;6217105;28;97145;-58
2022/08/15 06:48:40;;;;;;;;;30.00;27.67;;;;;27.71;53.86;97966.34;6247771;27;97432;-57
2022/08/15 06:52:05;;;;;;;;;33.00;28.00;;;;;27.82;53.68;97963.84;6233924;27;97350;-55
2022/08/15 06:55:24;;;;;;;;;34.60;30.00;;;;;27.90;53.18;97963.69;6224907;28;97069;-58
2022/08/15 06:58:39;;;;;;;;;35.00;28.40;;;;;27.99;53.40;97961.56;6258994;27;96720;-58
2022/08/15 07:02:13;;;;;;;;;34.00;30.75;;;;;28.05;52.78;97955.75;6237032;28;97466;-56
2022/08/15 07:05:30;;;;;;;;;36.60;30.80;;;;;28.10;52.71;97959.00;6235889;28;97403;-57
2022/08/15 07:08:43;;;;;;;;;42.80;33.80;;;;;28.19;52.22;97961.66;6246083;27;96667;-57
2022/08/15 07:11:56;;;;;;;;;33.25;29.00;;;;;28.28;51.94;97971.38;6231044;27;97610;-58
2022/08/15 07:15:15;;;;;;;;;35.00;30.80;;;;;28.34;51.77;97972.72;6221764;27;97360;-62
2022/08/15 07:18:29;;;;;;;;;30.60;27.00;;;;;28.38;51.31;97970.03;6261382;27;97466;-57
2022/08/15 07:21:39;;;;;;;;;33.20;29.00;;;;;28.44;51.43;97966.59;6246504;27;96953;-58
2022/08/15 07:24:59;;;;;;;;;38.60;32.00;;;;;28.56;51.53;97971.22;6245118;27;97419;-58
2022/08/15 07:28:10;;;;;;;;;36.20;30.00;;;;;28.65;50.67;97977.38;6252241;27;96639;-59
2022/08/15 07:31:33;;;;;;;;;35.80;31.00;;;;;28.67;50.98;97979.78;6251229;27;97041;-56
2022/08/15 07:34:59;;;;;;;;;34.40;29.20;;;;;28.71;51.18;97977.91;6222063;27;97718;-56
2022/08/15 07:38:09;;;;;;;;;38.20;32.20;;;;;28.71;50.78;97975.13;6249660;27;96653;-58
2022/08/15 07:41:39;;;;;;;;;28.40;26.80;;;;;28.79;50.95;97974.94;6237234;27;97571;-57
2022/08/15 07:45:07;;;;;;;;;30.00;27.60;;;;;28.86;51.18;97982.63;6237176;28;97162;-56
2022/08/15 07:48:23;;;;;;;;;30.00;27.50;;;;;28.90;50.58;97972.41;6237399;27;96789;-55
2022/08/15 07:51:40;;;;;;;;;36.50;32.00;;;;;28.93;50.87;97974.44;6262503;27;96883;-55
2022/08/15 07:55:15;;;;;;;;;33.40;29.60;;;;;28.96;50.40;97967.38;6262113;27;96649;-58
2022/08/15 07:58:41;;;;;;;;;35.00;29.60;;;;;29.03;50.55;97973.09;6236922;27;97137;-59
2022/08/15 08:01:47;;;;;;;;;31.00;28.60;;;;;29.01;50.83;97959.56;6266268;27;97397;-55
2022/08/15 08:04:54;;;;;;;;;32.33;28.00;;;;;29.17;49.90;97973.38;6234775;27;97232;-60
2022/08/15 08:08:09;;;;;;;;;33.00;30.00;;;;;29.23;49.49;97988.53;6224965;27;97081;-56
2022/08/15 08:11:45;;;;;;;;;35.40;29.00;;;;;29.33;50.18;97982.44;6244233;27;97688;-56
2022/08/15 08:15:05;;;;;;;;;32.00;30.00;;;;;29.47;49.80;97984.69;6235434;27;97486;-60
2022/08/15 08:18:20;;;;;;;;;33.40;30.00;;;;;29.64;49.55;97981.44;6234925;27;97656;-60
2022/08/15 08:21:38;;;;;;;;;37.20;30.40;;;;;29.83;49.06;97995.28;6232524;27;97745;-57
2022/08/15 08:24:54;;;;;;;;;30.00;26.80;;;;;30.01;48.07;97976.16;6252451;27;96845;-58
2022/08/15 08:28:12;;;;;;;;;30.50;25.00;;;;;30.16;47.60;97988.31;6232073;27;97795;-57
2022/08/15 08:31:22;;;;;;;;;36.40;32.40;;;;;30.31;47.93;97979.84;6221809;28;97243;-60
2022/08/15 08:34:37;;;;;;;;;30.80;27.80;;;;;30.53;47.17;97986.56;6227588;28;96925;-55
2022/08/15 08:38:03;;;;;;;;;31.60;28.60;;;;;30.66;46.73;97990.72;6232854;27;97525;-59
2022/08/15 08:41:36;;;;;;;;;30.75;29.00;;;;;30.83;45.88;98001.31;6227428;27;97212;-60
2022/08/15 08:45:01;;;;;;;;;29.25;27.00;;;;;30.93;45.91;97995.09;6235007;27;96861;-59
2022/08/15 08:48:24;;;;;;;;;32.50;29.50;;;;;31.01;45.16;97995.97;6234997;27;96988;-57
2022/08/15 08:51:37;;;;;;;;;29.20;27.40;;;;;31.09;45.59;97994.09;6232506;27;97091;-55
2022/08/15 08:54:57;;;;;;;;;32.80;29.40;;;;;31.18;44.78;97989.09;6229351;27;96995;-58
2022/08/15 08:58:10;;;;;;;;;26.40;24.20;;;;;31.48;45.56;98000.97;6232066;28;98267;-57
2022/08/15 09:01:37;;;;;;;;;27.80;25.00;;;;;31.86;44.44;97999.00;6233095;28;99167;-56
2022/08/15 09:04:48;;;;;;;;;28.80;27.60;;;;;31.94;43.03;97962.44;6233386;27;97432;-58
2022/08/15 09:07:56;;;;;;;;;24.80;23.80;;;;;32.28;42.77;97979.09;6231489;28;96991;-61
2022/08/15 09:11:06;;;;;;;;;27.60;27.00;;;;;32.61;42.14;97981.69;6235372;27;97409;-58
2022/08/15 09:14:26;;;;;;;;;28.00;26.00;;;;;32.90;41.56;97982.69;6234006;27;97384;-62
2022/08/15 09:17:39;;;;;;;;;25.00;24.75;;;;;33.15;41.22;97997.59;6231020;27;97431;-62
2022/08/15 09:21:02;;;;;;;;;27.00;26.00;;;;;33.34;39.81;98002.06;6231808;27;98334;-61
2022/08/15 09:24:06;;;;;;;;;24.20;22.40;;;;;33.48;40.30;98002.13;6226227;28;97495;-61
2022/08/15 09:27:36;;;;;;;;;28.60;26.00;;;;;33.72;40.46;97986.66;6210811;28;96852;-61
2022/08/15 09:31:02;;;;;;;;;30.00;26.00;;;;;33.89;39.69;97989.47;6211065;28;98035;-54
2022/08/15 09:34:33;;;;;;;;;24.00;22.00;;;;;34.10;39.67;97980.31;6225057;28;97165;-58
2022/08/15 09:37:58;;;;;;;;;27.40;24.80;;;;;34.35;38.96;97983.94;6232723;27;97831;-59
2022/08/15 09:41:26;;;;;;;;;25.00;24.40;;;;;34.56;38.90;97976.69;6229721;27;97477;-55
2022/08/15 09:44:50;;;;;;;;;25.25;23.00;;;;;34.82;38.85;97979.09;6237622;27;97355;-57
2022/08/15 09:48:37;;;;;;;;;23.00;22.00;;;;;35.01;38.42;97967.41;6235739;27;96966;-55
2022/08/15 09:52:09;;;;;;;;;28.00;23.00;;;;;35.17;38.22;97967.00;6231983;27;96990;-56
2022/08/15 09:55:44;;;;;;;;;24.80;21.80;;;;;35.36;37.37;97963.69;6239864;27;97224;-55
2022/08/15 09:58:55;;;;;;;;;21.33;20.00;;;;;35.51;36.53;97970.03;6232584;28;97106;-56
2022/08/15 10:02:20;;;;;;;;;26.33;22.67;;;;;35.62;36.44;97965.16;6233624;28;97221;-56
2022/08/15 10:05:47;;;;;;;;;26.60;23.60;;;;;35.63;36.07;97958.31;6213718;28;97482;-58
2022/08/15 10:09:30;;;;;;;;;22.40;21.00;;;;;35.59;37.13;97955.53;6212779;28;97456;-55
2022/08/15 10:12:37;;;;;;;;;26.40;23.00;;;;;35.65;36.82;97953.13;6214295;28;96686;-55
2022/08/15 10:15:44;;;;;;;;;30.80;27.20;;;;;35.67;36.27;97955.53;6236397;28;98364;-57
2022/08/15 10:19:08;;;;;;;;;23.50;21.75;;;;;35.73;36.49;97954.69;6238787;27;97087;-61
2022/08/15 10:22:44;;;;;;;;;27.50;23.00;;;;;35.89;36.75;97952.16;6238190;28;97416;-55
2022/08/15 10:26:13;;;;;;;;;26.20;22.80;;;;;36.03;36.17;97956.88;6214400;28;96516;-55
2022/08/15 10:29:40;;;;;;;;;27.20;24.80;;;;;36.09;35.04;97958.03;6214733;28;97322;-60
2022/08/15 10:32:44;;;;;;;;;24.00;22.00;;;;;36.11;35.68;97952.00;6246590;27;96677;-59
2022/08/15 10:36:25;;;;;;;;;27.00;26.00;;;;;36.09;35.95;97960.03;6239491;28;97497;-54
2022/08/15 10:39:43;;;;;;;;;28.00;26.00;;;;;36.25;36.18;97965.94;6238859;27;97799;-60
2022/08/15 10:43:00;;;;;;;;;25.20;23.20;;;;;36.18;34.63;97927.50;6238366;28;97486;-59
2022/08/15 10:46:18;;;;;;;;;27.50;23.75;;;;;36.30;34.69;97959.88;6239185;28;96580;-61
2022/08/15 10:49:39;;;;;;;;;25.60;23.60;;;;;36.15;35.24;97939.56;6239331;27;97300;-61
2022/08/15 10:53:00;;;;;;;;;29.40;24.40;;;;;36.25;35.10;97941.50;6221498;27;98316;-58
2022/08/15 10:56:09;;;;;;;;;29.20;28.20;;;;;36.37;35.70;97945.78;6213897;28;97477;-58
2022/08/15 10:59:38;;;;;;;;;21.20;20.20;;;;;36.52;35.31;97938.81;6213667;28;96698;-56
2022/08/15 11:02:48;;;;;;;;;25.40;23.40;;;;;36.33;34.09;97920.56;6215661;28;96576;-59
2022/08/15 11:06:15;;;;;;;;;26.60;21.00;;;;;36.46;35.17;97946.88;6238068;27;97595;-57
2022/08/15 11:09:21;;;;;;;;;27.33;24.00;;;;;36.43;34.94;97947.72;6239026;27;96681;-60
2022/08/15 11:12:28;;;;;;;;;23.75;21.00;;;;;36.53;35.63;97953.66;6237381;28;96686;-56
2022/08/15 11:15:47;;;;;;;;;29.00;27.00;;;;;36.62;34.06;97945.56;6238356;27;96470;-58
2022/08/15 11:18:53;;;;;;;;;23.40;21.00;;;;;36.66;35.48;97947.09;6238873;28;97556;-55
2022/08/15 11:22:03;;;;;;;;;29.00;25.00;;;;;36.70;35.12;97947.09;6237157;28;97462;-55
2022/08/15 11:25:17;;;;;;;;;26.67;24.00;;;;;36.80;34.98;97944.13;6238553;28;97416;-54
2022/08/15 11:28:24;;;;;;;;;25.00;24.67;;;;;36.94;34.74;97937.59;6238229;27;97443;-56
2022/08/15 11:31:52;;;;;;;;;27.75;23.25;;;;;37.10;34.00;97929.38;6223426;27;97449;-55
2022/08/15 11:35:00;;;;;;;;;22.00;21.00;;;;;37.24;33.78;97926.38;6213119;28;97452;-57
2022/08/15 11:38:06;;;;;;;;;23.40;21.00;;;;;37.31;33.95;97928.28;6228787;27;97111;-56
2022/08/15 11:41:27;;;;;;;;;23.00;21.00;;;;;37.48;34.19;97937.72;6231440;28;97649;-56
2022/08/15 11:44:41;;;;;;;;;25.00;22.00;;;;;37.60;33.63;97928.72;6220868;28;97482;-55
2022/08/15 11:47:50;;;;;;;;;25.00;23.60;;;;;37.73;33.80;97929.72;6255926;27;97708;-59
2022/08/15 11:51:01;;;;;;;;;26.00;23.00;;;;;37.80;32.76;97937.25;6219055;28;97485;-57
2022/08/15 11:54:21;;;;;;;;;20.40;19.00;;;;;37.85;32.45;97928.31;6226092;28;97462;-56
2022/08/15 11:57:42;;;;;;;;;24.20;21.60;;;;;37.90;31.42;97925.84;6234518;28;97382;-56
2022/08/15 12:00:49;;;;;;;;;20.00;19.20;;;;;37.92;32.27;97925.41;6236325;27;97636;-55
2022/08/15 12:04:05;;;;;;;;;22.50;21.00;;;;;37.91;31.10;97921.81;6234493;27;97440;-58
2022/08/15 12:07:30;;;;;;;;;23.00;22.00;;;;;37.77;31.12;97919.22;6233694;28;96677;-63
2022/08/15 12:10:38;;;;;;;;;23.00;21.00;;;;;37.69;31.50;97918.53;6240647;27;97519;-56
2022/08/15 12:14:00;;;;;;;;;23.00;19.60;;;;;37.66;32.64;97913.75;6245798;27;97649;-55
2022/08/15 12:17:07;;;;;;;;;20.40;19.40;;;;;37.71;31.85;97906.84;6243225;27;97522;-58
2022/08/15 12:20:34;;;;;;;;;19.60;19.60;;;;;37.78;32.75;97903.13;6242193;27;97352;-59
2022/08/15 12:23:47;;;;;;;;;25.00;23.00;;;;;37.68;30.70;97899.28;6221872;27;97453;-58
2022/08/15 12:26:57;;;;;;;;;21.60;19.60;;;;;37.60;32.05;97894.97;6235461;28;96667;-55
2022/08/15 12:30:10;;;;;;;;;21.50;19.00;;;;;37.71;32.60;97902.03;6230949;27;100464;-54
2022/08/15 12:33:14;;;;;;;;;24.00;21.00;;;;;37.88;32.06;97899.31;6235663;27;97487;-57
2022/08/15 12:36:19;;;;;;;;;20.80;19.80;;;;;37.88;31.79;97865.56;6231493;28;97740;-56
2022/08/15 12:39:49;;;;;;;;;20.00;17.40;;;;;38.03;29.26;97872.56;6236504;28;97686;-60
2022/08/15 12:42:57;;;;;;;;;23.00;19.00;;;;;38.13;29.96;97894.09;6235685;27;97195;-59
2022/08/15 12:46:03;;;;;;;;;21.60;19.20;;;;;38.17;30.56;97886.38;6235638;28;97465;-58
2022/08/15 12:49:07;;;;;;;;;19.00;19.00;;;;;38.24;30.89;97880.66;6234109;28;96555;-57
2022/08/15 12:52:12;;;;;;;;;21.00;19.00;;;;;38.29;30.01;97873.72;6230474;27;98012;-56
2022/08/15 12:55:16;;;;;;;;;23.80;22.80;;;;;38.15;29.55;97869.94;6233124;27;97430;-58
2022/08/15 12:58:21;;;;;;;;;23.00;20.80;;;;;38.07;30.20;97874.09;6231605;28;97470;-59
2022/08/15 13:01:26;;;;;;;;;20.20;17.00;;;;;38.06;30.64;97872.53;6230392;27;97550;-55
2022/08/15 13:04:39;;;;;;;;;18.00;15.00;;;;;38.15;30.45;97875.59;6226659;27;97300;-56
2022/08/15 13:08:01;;;;;;;;;21.00;18.60;;;;;38.24;30.88;97865.78;6232357;28;97970;-55
2022/08/15 13:11:25;;;;;;;;;21.60;18.20;;;;;38.24;29.47;97882.66;6228987;28;97425;-55
2022/08/15 13:14:29;;;;;;;;;19.00;17.00;;;;;38.10;29.23;97870.44;6230467;27;96696;-59
2022/08/15 13:17:33;;;;;;;;;19.50;16.75;;;;;37.95;28.89;97879.53;6236123;28;97951;-57
2022/08/15 13:24:12;;;;;;;;;20.00;19.00;;;;;37.64;29.42;97862.75;6236085;28;97482;-58
2022/08/15 13:27:23;;;;;;;;;19.00;17.00;;;;;37.49;28.45;97861.34;6237551;28;97218;-55
2022/08/15 13:30:30;;;;;;;;;19.25;18.50;;;;;37.37;29.78;97849.91;6237222;27;97811;-55
2022/08/15 13:33:42;;;;;;;;;18.00;16.00;;;;;37.40;29.23;97857.47;6237545;28;97294;-56
2022/08/15 13:36:49;;;;;;;;;18.00;18.00;;;;;37.40;28.58;97849.84;6235273;28;97612;-59
2022/08/15 13:39:58;;;;;;;;;17.00;15.25;;;;;37.26;29.42;97814.31;6237347;27;97394;-55
2022/08/15 13:43:03;;;;;;;;;18.00;17.00;;;;;37.46;28.85;97836.91;6234802;27;97501;-60
2022/08/15 13:46:18;;;;;;;;;21.00;19.00;;;;;37.55;29.26;97831.56;6235028;27;96782;-55
2022/08/15 13:49:36;;;;;;;;;15.00;14.00;;;;;37.62;28.23;97830.66;6236471;27;97435;-58
2022/08/15 13:52:39;;;;;;;;;16.50;14.75;;;;;37.63;28.21;97838.66;6236646;27;96740;-60
2022/08/15 13:55:50;;;;;;;;;16.50;16.50;;;;;37.71;29.12;97844.97;6237279;28;97141;-57
2022/08/15 13:58:54;;;;;;;;;16.00;15.00;;;;;37.79;28.23;97834.38;6242006;27;97318;-56
2022/08/15 14:02:03;;;;;;;;;17.00;16.40;;;;;37.84;29.08;97833.88;6238369;27;97959;-57
2022/08/15 14:05:27;;;;;;;;;16.00;15.00;;;;;37.92;28.69;97835.38;6236778;27;97445;-55
2022/08/15 14:08:37;;;;;;;;;19.00;17.00;;;;;37.98;28.09;97842.88;6237437;28;97697;-58
2022/08/15 14:12:05;;;;;;;;;14.25;14.25;;;;;38.00;27.86;97842.50;6235000;27;97418;-56
2022/08/15 14:15:11;;;;;;;;;18.20;16.20;;;;;37.95;27.93;97842.94;6231957;28;97209;-54
2022/08/15 14:18:27;;;;;;;;;17.00;16.00;;;;;37.80;27.38;97833.97;6238248;27;96979;-56
2022/08/15 14:21:50;;;;;;;;;14.20;14.20;;;;;37.73;28.82;97846.13;6238026;27;97157;-55
2022/08/15 14:24:54;;;;;;;;;17.25;15.25;;;;;37.69;27.99;97836.94;6237127;27;96671;-57
2022/08/15 14:28:19;;;;;;;;;20.00;18.00;;;;;37.55;29.31;97839.19;6235171;27;97430;-57
2022/08/15 14:31:23;;;;;;;;;16.60;15.00;;;;;37.49;29.65;97838.06;6234856;28;96913;-57
2022/08/15 14:34:31;;;;;;;;;20.33;19.33;;;;;37.36;29.29;97849.09;6238483;27;97466;-58
2022/08/15 14:37:56;;;;;;;;;18.50;18.00;;;;;37.30;30.63;97848.78;6232951;27;97475;-57
2022/08/15 14:41:00;;;;;;;;;18.20;16.20;;;;;37.17;29.44;97841.38;6228593;28;97407;-55
2022/08/15 14:44:05;;;;;;;;;19.00;18.00;;;;;37.09;29.91;97851.13;6235981;27;96637;-54
2022/08/15 14:47:09;;;;;;;;;16.00;15.00;;;;;36.96;29.19;97845.22;6236638;28;96643;-55
2022/08/15 14:50:15;;;;;;;;;16.60;15.60;;;;;36.77;28.61;97841.06;6234123;28;97452;-54
2022/08/15 14:53:39;;;;;;;;;20.20;18.00;;;;;36.49;29.12;97849.81;6234441;28;97497;-55
2022/08/15 14:56:45;;;;;;;;;17.00;16.00;;;;;36.26;28.69;97846.88;6234777;28;96410;-59
2022/08/15 14:59:51;;;;;;;;;16.00;16.00;;;;;36.01;29.79;97845.09;6235876;27;97748;-54